createdAt,value
2019-05-18T00:00:34.230Z,95900.07
2019-05-18T00:03:06.156Z,95898.41
2019-05-18T00:05:37.636Z,95894.57
2019-05-18T00:08:09.477Z,95895.34
2019-05-18T00:10:41.086Z,95891.44
2019-05-18T00:13:12.689Z,95890.21
2019-05-18T00:15:44.174Z,95889.38
2019-05-18T00:18:15.715Z,95893.28
2019-05-18T00:20:47.252Z,95887.34
2019-05-18T00:23:18.754Z,95881.39
2019-05-18T00:25:50.340Z,95881.82
2019-05-18T00:28:23.004Z,95879.30
2019-05-18T00:30:54.619Z,95885.31
2019-05-18T00:33:26.434Z,95884.89
2019-05-18T00:35:58.868Z,95881.08
2019-05-18T00:38:30.363Z,95885.31
2019-05-18T00:41:01.848Z,95890.84
2019-05-18T00:43:33.345Z,95887.03
2019-05-18T00:46:05.226Z,95885.31
2019-05-18T00:48:36.712Z,95886.66
2019-05-18T00:51:08.197Z,95890.64
2019-05-18T00:53:39.768Z,95894.88
2019-05-18T00:56:11.246Z,95887.61
2019-05-18T00:58:42.811Z,95886.78
2019-05-18T01:01:15.265Z,95887.66
2019-05-18T01:03:46.669Z,95880.89
2019-05-18T01:06:18.385Z,95883.95
2019-05-18T01:08:50.214Z,95878.84
2019-05-18T01:11:21.696Z,95881.02
2019-05-18T01:13:53.214Z,95878.90
2019-05-18T01:16:25.104Z,95879.76
2019-05-18T01:18:56.673Z,95885.75
2019-05-18T01:21:29.221Z,95873.75
2019-05-18T01:24:00.725Z,95876.40
2019-05-18T01:26:32.480Z,95873.84
2019-05-18T01:29:06.625Z,95876.09
2019-05-18T01:31:38.140Z,95870.96
2019-05-18T01:34:09.623Z,95867.97
2019-05-18T01:36:41.433Z,95872.20
2019-05-18T01:39:12.943Z,95867.51
2019-05-18T01:41:44.423Z,95870.87
2019-05-18T01:44:15.922Z,95871.80
2019-05-18T01:46:47.407Z,95867.05
2019-05-18T01:49:18.846Z,95867.08
2019-05-18T01:51:50.365Z,95869.25
2019-05-18T01:54:21.881Z,95870.96
2019-05-18T01:56:53.375Z,95867.14
2019-05-18T01:59:24.875Z,95868.06
2019-05-18T02:01:56.355Z,95861.20
2019-05-18T02:04:27.925Z,95870.74
2019-05-18T02:06:59.522Z,95866.52
2019-05-18T02:09:30.892Z,95865.69
2019-05-18T02:12:02.383Z,95859.78
2019-05-18T02:14:34.902Z,95866.25
2019-05-18T02:17:06.673Z,95857.30
2019-05-18T02:19:38.171Z,95860.73
2019-05-18T02:22:09.982Z,95859.94
2019-05-18T02:24:41.485Z,95862.10
2019-05-18T02:27:12.921Z,95854.78
2019-05-18T02:29:44.703Z,95855.66
2019-05-18T02:32:16.453Z,95857.45
2019-05-18T02:34:47.967Z,95853.20
2019-05-18T02:37:19.360Z,95851.94
2019-05-18T02:39:54.932Z,95851.08
2019-05-18T02:42:30.518Z,95851.95
2019-05-18T02:44:59.578Z,95845.10
2019-05-18T02:47:31.101Z,95846.31
2019-05-18T02:50:02.580Z,95844.08
2019-05-18T02:52:34.081Z,95840.66
2019-05-18T02:55:06.342Z,95838.09
2019-05-18T02:57:37.848Z,95839.37
2019-05-18T03:00:10.575Z,95838.50
2019-05-18T03:02:42.037Z,95835.55
2019-05-18T03:05:14.076Z,95834.69
2019-05-18T03:07:45.561Z,95826.15
2019-05-18T03:10:17.469Z,95834.77
2019-05-18T03:12:48.975Z,95832.63
2019-05-18T03:15:20.459Z,95836.11
2019-05-18T03:17:52.015Z,95832.27
2019-05-18T03:20:23.503Z,95834.02
2019-05-18T03:22:54.893Z,95839.57
2019-05-18T03:25:26.393Z,95836.58
2019-05-18T03:27:57.894Z,95848.15
2019-05-18T03:30:29.444Z,95843.02
2019-05-18T03:33:00.886Z,95845.64
2019-05-18T03:35:32.758Z,95846.52
2019-05-18T03:38:04.338Z,95838.84
2019-05-18T03:40:35.794Z,95848.26
2019-05-18T03:43:07.341Z,95844.86
2019-05-18T03:45:38.762Z,95848.28
2019-05-18T03:48:10.272Z,95842.33
2019-05-18T03:50:41.744Z,95854.76
2019-05-18T03:53:13.218Z,95845.28
2019-05-18T03:55:44.681Z,95847.83
2019-05-18T03:58:16.061Z,95840.52
2019-05-18T04:00:47.488Z,95844.72
2019-05-18T04:03:19.217Z,95845.45
2019-05-18T04:05:51.116Z,95846.70
2019-05-18T04:08:22.661Z,95848.79
2019-05-18T04:10:54.394Z,95848.30
2019-05-18T04:13:25.846Z,95841.39
2019-05-18T04:15:57.290Z,95839.20
2019-05-18T04:18:28.748Z,95838.72
2019-05-18T04:21:06.246Z,95845.89
2019-05-18T04:23:50.914Z,95846.23
2019-05-18T04:26:23.454Z,95852.16
2019-05-18T04:28:54.834Z,95849.06
2019-05-18T04:31:26.261Z,95852.83
2019-05-18T04:33:57.770Z,95860.46
2019-05-18T04:36:29.532Z,95864.11
2019-05-18T04:39:00.829Z,95861.42
2019-05-18T04:41:33.625Z,95870.80
2019-05-18T04:44:05.464Z,95874.98
2019-05-18T04:46:36.971Z,95877.90
2019-05-18T04:49:08.430Z,95879.92
2019-05-18T04:51:39.916Z,95886.68
2019-05-18T04:54:11.727Z,95884.80
2019-05-18T04:56:43.421Z,95888.52
2019-05-18T04:59:14.936Z,95891.35
2019-05-18T05:01:46.531Z,95893.73
2019-05-18T05:04:18.005Z,95881.53
2019-05-18T05:06:49.571Z,95884.72
2019-05-18T05:09:20.953Z,95882.27
2019-05-18T05:11:52.952Z,95878.53
2019-05-18T05:14:24.211Z,95878.80
2019-05-18T05:16:55.917Z,95884.97
2019-05-18T05:19:27.399Z,95884.83
2019-05-18T05:21:59.142Z,95881.59
2019-05-18T05:24:30.687Z,95877.48
2019-05-18T05:27:02.230Z,95882.95
2019-05-18T05:29:33.695Z,95890.00
2019-05-18T05:32:05.512Z,95879.89
2019-05-18T05:34:37.118Z,95881.66
2019-05-18T05:37:08.949Z,95884.30
2019-05-18T05:39:40.539Z,95883.97
2019-05-18T05:42:11.989Z,95885.35
2019-05-18T05:44:43.316Z,95884.48
2019-05-18T05:47:14.902Z,95889.18
2019-05-18T05:49:46.214Z,95884.42
2019-05-18T05:52:18.063Z,95894.73
2019-05-18T05:54:49.750Z,95901.23
2019-05-18T05:57:21.208Z,95897.62
2019-05-18T05:59:52.980Z,95896.12
2019-05-18T06:02:24.442Z,95901.52
2019-05-18T06:04:55.946Z,95899.36
2019-05-18T06:07:27.421Z,95897.13
2019-05-18T06:09:59.150Z,95898.56
2019-05-18T06:12:30.538Z,95895.48
2019-05-18T06:15:01.885Z,95897.59
2019-05-18T06:17:33.311Z,95897.92
2019-05-18T06:20:05.191Z,95903.83
2019-05-18T06:22:38.360Z,95895.94
2019-05-18T06:25:10.838Z,95905.14
2019-05-18T06:27:42.362Z,95905.09
2019-05-18T06:30:14.198Z,95898.75
2019-05-18T06:32:45.602Z,95896.48
2019-05-18T06:35:17.189Z,95901.42
2019-05-18T06:37:48.572Z,95900.06
2019-05-18T06:40:20.375Z,95903.52
2019-05-18T06:42:51.997Z,95907.13
2019-05-18T06:45:23.676Z,95910.69
2019-05-18T06:47:55.192Z,95914.08
2019-05-18T06:50:31.269Z,95909.90
2019-05-18T06:53:02.901Z,95912.30
2019-05-18T06:55:35.552Z,95910.95
2019-05-18T06:58:07.525Z,95906.91
2019-05-18T07:00:39.308Z,95909.05
2019-05-18T07:03:10.993Z,95911.02
2019-05-18T07:05:45.575Z,95912.94
2019-05-18T07:08:15.789Z,95913.78
2019-05-18T07:10:47.331Z,95909.48
2019-05-18T07:13:18.735Z,95903.48
2019-05-18T07:15:50.256Z,95906.08
2019-05-18T07:18:21.840Z,95895.30
2019-05-18T07:20:53.194Z,95899.55
2019-05-18T07:23:24.602Z,95905.96
2019-05-18T07:25:56.589Z,95903.46
2019-05-18T07:28:27.991Z,95905.17
2019-05-18T07:30:59.441Z,95899.53
2019-05-18T07:33:30.833Z,95898.31
2019-05-18T07:36:02.220Z,95888.30
2019-05-18T07:38:33.469Z,95891.60
2019-05-18T07:41:05.763Z,95880.25
2019-05-18T07:43:38.158Z,95889.77
2019-05-18T07:46:09.678Z,95884.98
2019-05-18T07:48:41.075Z,95883.95
2019-05-18T07:51:12.494Z,95887.20
2019-05-18T07:53:43.959Z,95886.05
2019-05-18T07:56:15.401Z,95880.59
2019-05-18T07:58:47.246Z,95881.60
2019-05-18T08:01:18.962Z,95889.20
2019-05-18T08:03:50.418Z,95889.48
2019-05-18T08:06:22.286Z,95899.63
2019-05-18T08:08:53.929Z,95894.77
2019-05-18T08:11:25.417Z,95895.79
2019-05-18T08:13:56.898Z,95897.00
2019-05-18T08:16:28.322Z,95895.20
2019-05-18T08:18:59.817Z,95896.22
2019-05-18T08:21:31.661Z,95895.34
2019-05-18T08:24:03.107Z,95894.78
2019-05-18T08:26:34.745Z,95899.35
2019-05-18T08:29:06.253Z,95902.24
2019-05-18T08:31:37.973Z,95899.97
2019-05-18T08:34:09.430Z,95901.11
2019-05-18T08:36:40.927Z,95901.58
2019-05-18T08:39:12.393Z,95897.99
2019-05-18T08:41:43.934Z,95895.45
2019-05-18T08:44:15.274Z,95896.73
2019-05-18T08:46:46.750Z,95894.84
2019-05-18T08:49:18.180Z,95889.99
2019-05-18T08:51:49.656Z,95890.88
2019-05-18T08:54:21.655Z,95894.39
2019-05-18T08:56:53.177Z,95885.16
2019-05-18T08:59:24.646Z,95884.83
2019-05-18T09:01:56.235Z,95888.17
2019-05-18T09:04:27.547Z,95890.45
2019-05-18T09:06:58.956Z,95882.18
2019-05-18T09:09:30.518Z,95889.24
2019-05-18T09:12:02.057Z,95891.03
2019-05-18T09:14:33.984Z,95883.63
2019-05-18T09:17:05.474Z,95893.50
2019-05-18T09:19:37.088Z,95891.63
2019-05-18T09:22:22.440Z,95887.27
2019-05-18T09:24:41.863Z,95885.75
2019-05-18T09:27:13.379Z,95888.31
2019-05-18T09:29:44.927Z,95876.09
2019-05-18T09:32:16.382Z,95876.78
2019-05-18T09:34:47.811Z,95881.26
2019-05-18T09:37:19.286Z,95877.44
2019-05-18T09:39:50.799Z,95878.50
2019-05-18T09:42:22.272Z,95876.50
2019-05-18T09:44:54.184Z,95886.69
2019-05-18T09:47:25.781Z,95879.48
2019-05-18T09:49:57.338Z,95880.55
2019-05-18T09:52:44.340Z,95880.89
2019-05-18T09:55:02.365Z,95879.69
2019-05-18T09:57:34.890Z,95884.43
2019-05-18T10:00:07.608Z,95871.98
2019-05-18T10:02:39.091Z,95881.43
2019-05-18T10:05:11.015Z,95882.98
2019-05-18T10:07:42.576Z,95876.24
2019-05-18T10:10:15.261Z,95879.32
2019-05-18T10:12:46.847Z,95875.23
2019-05-18T10:15:18.730Z,95877.40
2019-05-18T10:17:50.064Z,95881.88
2019-05-18T10:20:21.888Z,95875.27
2019-05-18T10:23:10.390Z,95881.86
2019-05-18T10:25:28.067Z,95878.37
2019-05-18T10:27:59.850Z,95877.20
2019-05-18T10:30:31.172Z,95874.59
2019-05-18T10:33:02.766Z,95881.05
2019-05-18T10:35:34.264Z,95875.16
2019-05-18T10:38:06.107Z,95867.20
2019-05-18T10:40:37.767Z,95872.08
2019-05-18T10:43:09.548Z,95868.34
2019-05-18T10:45:44.796Z,95867.73
2019-05-18T10:48:14.456Z,95862.76
2019-05-18T10:50:46.514Z,95859.53
2019-05-18T10:53:28.400Z,95862.69
2019-05-18T10:55:51.627Z,95860.30
2019-05-18T10:58:23.104Z,95861.91
2019-05-18T11:00:54.843Z,95849.69
2019-05-18T11:03:26.774Z,95842.53
2019-05-18T11:05:58.243Z,95843.77
2019-05-18T11:08:29.684Z,95840.94
2019-05-18T11:11:01.539Z,95838.13
2019-05-18T11:13:33.031Z,95848.13
2019-05-18T11:16:04.588Z,95847.50
2019-05-18T11:18:36.119Z,95841.92
2019-05-18T11:21:07.676Z,95834.11
2019-05-18T11:23:43.616Z,95834.67
2019-05-18T11:26:14.092Z,95840.37
2019-05-18T11:28:45.838Z,95831.13
2019-05-18T11:31:17.325Z,95823.95
2019-05-18T11:33:48.789Z,95822.47
2019-05-18T11:36:20.269Z,95823.57
2019-05-18T11:38:51.907Z,95825.38
2019-05-18T11:41:23.406Z,95828.02
2019-05-18T11:43:54.806Z,95829.33
2019-05-18T11:46:29.557Z,95827.06
2019-05-18T11:49:01.113Z,95823.87
2019-05-18T11:51:32.605Z,95820.20
2019-05-18T11:54:04.172Z,95815.99
2019-05-18T11:56:36.262Z,95815.22
2019-05-18T11:59:07.651Z,95816.77
2019-05-18T12:01:39.104Z,95815.58
2019-05-18T12:04:10.604Z,95814.78
2019-05-18T12:06:42.163Z,95812.52
2019-05-18T12:09:13.563Z,95815.35
2019-05-18T12:11:45.043Z,95820.36
2019-05-18T12:14:16.595Z,95814.56
2019-05-18T12:16:48.774Z,95812.90
2019-05-18T12:19:20.267Z,95802.91
2019-05-18T12:21:52.240Z,95810.44
2019-05-18T12:24:24.352Z,95808.00
2019-05-18T12:26:56.126Z,95805.98
2019-05-18T12:29:27.711Z,95812.08
2019-05-18T12:31:59.495Z,95807.32
2019-05-18T12:34:31.035Z,95803.50
2019-05-18T12:37:02.535Z,95805.88
2019-05-18T12:39:33.960Z,95798.38
2019-05-18T12:42:07.566Z,95799.09
2019-05-18T12:45:14.189Z,95793.45
2019-05-18T12:47:49.475Z,95801.66
2019-05-18T12:50:25.388Z,95798.45
2019-05-18T12:52:56.881Z,95795.51
2019-05-18T12:55:28.377Z,95792.37
2019-05-18T12:57:59.955Z,95796.71
2019-05-18T13:00:32.898Z,95792.48
2019-05-18T13:03:04.380Z,95789.61
2019-05-18T13:05:35.887Z,95793.98
2019-05-18T13:08:07.661Z,95790.55
2019-05-18T13:10:39.461Z,95777.98
2019-05-18T13:13:10.959Z,95776.76
2019-05-18T13:15:42.551Z,95773.66
2019-05-18T13:18:14.035Z,95763.48
2019-05-18T13:20:48.078Z,95777.65
2019-05-18T13:23:19.757Z,95778.86
2019-05-18T13:25:51.559Z,95774.08
2019-05-18T13:28:23.494Z,95776.33
2019-05-18T13:30:54.934Z,95764.47
2019-05-18T13:33:26.413Z,95755.20
2019-05-18T13:35:57.954Z,95760.24
2019-05-18T13:38:30.065Z,95758.42
2019-05-18T13:41:01.561Z,95753.15
2019-05-18T13:43:33.035Z,95757.60
2019-05-18T13:46:04.821Z,95749.52
2019-05-18T13:48:36.357Z,95749.31
2019-05-18T13:51:08.102Z,95752.44
2019-05-18T13:53:39.489Z,95744.28
2019-05-18T13:56:11.043Z,95745.75
2019-05-18T13:58:42.520Z,95746.40
2019-05-18T14:01:14.000Z,95744.72
2019-05-18T14:03:45.886Z,95739.60
2019-05-18T14:06:17.219Z,95745.94
2019-05-18T14:08:48.911Z,95745.47
2019-05-18T14:11:20.438Z,95741.72
2019-05-18T14:13:51.887Z,95737.42
2019-05-18T14:16:23.343Z,95738.92
2019-05-18T14:18:54.794Z,95737.88
2019-05-18T14:21:26.190Z,95735.25
2019-05-18T14:23:57.682Z,95733.78
2019-05-18T14:26:29.221Z,95734.20
2019-05-18T14:29:00.620Z,95735.31
2019-05-18T14:31:32.112Z,95731.80
2019-05-18T14:34:03.597Z,95737.91
2019-05-18T14:36:35.070Z,95732.58
2019-05-18T14:39:08.652Z,95733.84
2019-05-18T14:41:42.526Z,95733.31
2019-05-18T14:44:14.122Z,95730.83
2019-05-18T14:46:45.612Z,95731.90
2019-05-18T14:49:17.222Z,95729.98
2019-05-18T14:51:48.623Z,95735.34
2019-05-18T14:54:24.978Z,95734.72
2019-05-18T14:56:53.305Z,95733.03
2019-05-18T14:59:24.771Z,95730.17
2019-05-18T15:01:56.269Z,95734.92
2019-05-18T15:04:27.939Z,95731.00
2019-05-18T15:06:59.352Z,95733.46
2019-05-18T15:09:30.824Z,95736.75
2019-05-18T15:12:02.293Z,95729.06
2019-05-18T15:14:33.772Z,95729.33
2019-05-18T15:17:05.235Z,95728.92
2019-05-18T15:19:36.679Z,95731.73
2019-05-18T15:22:08.989Z,95728.48
2019-05-18T15:24:40.398Z,95731.37
2019-05-18T15:27:11.975Z,95732.52
2019-05-18T15:29:43.433Z,95727.13
2019-05-18T15:32:14.870Z,95726.30
2019-05-18T15:34:46.321Z,95733.73
2019-05-18T15:37:17.776Z,95733.84
2019-05-18T15:39:49.688Z,95732.05
2019-05-18T15:42:21.173Z,95729.11
2019-05-18T15:44:52.618Z,95730.98
2019-05-18T15:47:24.087Z,95723.64
2019-05-18T15:49:55.402Z,95724.99
2019-05-18T15:52:26.803Z,95722.28
2019-05-18T15:54:58.209Z,95724.63
2019-05-18T15:57:30.244Z,95718.41
2019-05-18T16:00:06.201Z,95718.97
2019-05-18T16:02:35.595Z,95716.76
2019-05-18T16:05:08.036Z,95719.23
2019-05-18T16:07:39.839Z,95716.59
2019-05-18T16:10:11.873Z,95720.90
2019-05-18T16:12:43.363Z,95717.24
2019-05-18T16:15:15.413Z,95720.42
2019-05-18T16:17:46.979Z,95720.02
2019-05-18T16:20:19.073Z,95718.64
2019-05-18T16:22:50.601Z,95724.39
2019-05-18T16:25:22.064Z,95718.32
2019-05-18T16:27:53.471Z,95715.88
2019-05-18T16:30:25.522Z,95714.34
2019-05-18T16:32:56.983Z,95707.42
2019-05-18T16:35:28.811Z,95715.80
2019-05-18T16:38:00.285Z,95711.06
2019-05-18T16:40:31.766Z,95704.75
2019-05-18T16:43:03.435Z,95706.97
2019-05-18T16:45:35.196Z,95705.08
2019-05-18T16:48:06.668Z,95704.77
2019-05-18T16:50:38.239Z,95701.75
2019-05-18T16:53:09.991Z,95703.11
2019-05-18T16:55:41.477Z,95699.92
2019-05-18T16:58:13.121Z,95699.50
2019-05-18T17:00:46.061Z,95702.03
2019-05-18T17:03:17.919Z,95693.33
2019-05-18T17:05:49.572Z,95687.11
2019-05-18T17:08:21.325Z,95687.84
2019-05-18T17:10:52.751Z,95693.22
2019-05-18T17:13:24.387Z,95695.47
2019-05-18T17:15:55.947Z,95696.73
2019-05-18T17:18:27.406Z,95698.22
2019-05-18T17:20:58.894Z,95690.91
2019-05-18T17:23:30.214Z,95704.11
2019-05-18T17:26:01.801Z,95701.41
2019-05-18T17:28:33.513Z,95708.77
2019-05-18T17:31:05.085Z,95703.63
2019-05-18T17:33:36.604Z,95709.22
2019-05-18T17:36:08.188Z,95709.19
2019-05-18T17:38:40.330Z,95716.20
2019-05-18T17:41:11.831Z,95709.08
2019-05-18T17:43:43.308Z,95719.91
2019-05-18T17:46:14.899Z,95718.88
2019-05-18T17:48:46.475Z,95718.03
2019-05-18T17:51:18.532Z,95720.91
2019-05-18T17:53:49.928Z,95723.05
2019-05-18T17:56:21.479Z,95719.91
2019-05-18T17:58:53.086Z,95721.58
2019-05-18T18:01:24.825Z,95715.84
2019-05-18T18:03:56.292Z,95716.81
2019-05-18T18:06:27.746Z,95719.84
2019-05-18T18:08:59.272Z,95718.45
2019-05-18T18:11:30.756Z,95723.22
2019-05-18T18:14:02.234Z,95725.44
2019-05-18T18:16:33.745Z,95726.06
2019-05-18T18:19:05.501Z,95728.49
2019-05-18T18:21:37.743Z,95729.30
2019-05-18T18:24:09.377Z,95733.53
2019-05-18T18:26:40.711Z,95728.73
2019-05-18T18:29:12.208Z,95732.85
2019-05-18T18:31:43.701Z,95727.28
2019-05-18T18:34:15.196Z,95728.72
2019-05-18T18:36:46.692Z,95732.57
2019-05-18T18:39:18.269Z,95736.50
2019-05-18T18:41:49.802Z,95739.19
2019-05-18T18:44:21.243Z,95742.13
2019-05-18T18:46:53.100Z,95741.63
2019-05-18T18:49:25.244Z,95735.89
2019-05-18T18:51:56.739Z,95735.89
2019-05-18T18:54:28.169Z,95737.88
2019-05-18T18:56:59.671Z,95737.66
2019-05-18T18:59:31.160Z,95737.81
2019-05-18T19:02:02.547Z,95740.26
2019-05-18T19:04:33.947Z,95741.54
2019-05-18T19:07:08.981Z,95746.86
2019-05-18T19:09:39.000Z,95751.02
2019-05-18T19:12:10.535Z,95756.91
2019-05-18T19:14:42.039Z,95753.45
2019-05-18T19:17:13.570Z,95757.97
2019-05-18T19:19:45.011Z,95755.78
2019-05-18T19:22:16.514Z,95766.13
2019-05-18T19:24:47.917Z,95768.80
2019-05-18T19:27:19.479Z,95766.56
2019-05-18T19:29:51.977Z,95773.04
2019-05-18T19:32:23.475Z,95774.38
2019-05-18T19:34:55.006Z,95775.53
2019-05-18T19:37:26.685Z,95773.55
2019-05-18T19:39:58.218Z,95767.47
2019-05-18T19:42:29.702Z,95776.30
2019-05-18T19:45:01.236Z,95777.70
2019-05-18T19:47:32.910Z,95770.66
2019-05-18T19:50:04.573Z,95781.97
2019-05-18T19:52:36.472Z,95782.92
2019-05-18T19:55:08.838Z,95782.25
2019-05-18T19:57:40.383Z,95779.64
2019-05-18T20:00:12.831Z,95781.95
2019-05-18T20:02:44.624Z,95786.34
2019-05-18T20:05:16.134Z,95790.90
2019-05-18T20:07:47.794Z,95788.95
2019-05-18T20:10:19.743Z,95791.41
2019-05-18T20:12:51.289Z,95785.77
2019-05-18T20:15:22.895Z,95785.85
2019-05-18T20:17:54.605Z,95789.30
2019-05-18T20:20:26.021Z,95787.66
2019-05-18T20:22:57.577Z,95785.77
2019-05-18T20:25:29.124Z,95781.95
2019-05-18T20:28:00.471Z,95783.48
2019-05-18T20:30:31.937Z,95788.83
2019-05-18T20:33:03.426Z,95784.70
2019-05-18T20:35:34.977Z,95787.83
2019-05-18T20:38:06.405Z,95782.62
2019-05-18T20:40:37.767Z,95780.45
2019-05-18T20:43:09.250Z,95783.34
2019-05-18T20:45:41.044Z,95777.41
2019-05-18T20:48:12.567Z,95781.52
2019-05-18T20:50:43.996Z,95782.69
2019-05-18T20:53:15.491Z,95782.07
2019-05-18T20:55:47.393Z,95781.27
2019-05-18T20:58:18.962Z,95782.70
2019-05-18T21:00:50.462Z,95786.95
2019-05-18T21:03:21.946Z,95782.25
2019-05-18T21:05:53.411Z,95781.46
2019-05-18T21:08:24.919Z,95783.80
2019-05-18T21:10:56.292Z,95777.36
2019-05-18T21:13:27.724Z,95778.55
2019-05-18T21:15:59.204Z,95773.81
2019-05-18T21:18:30.685Z,95776.25
2019-05-18T21:21:02.024Z,95772.20
2019-05-18T21:23:33.845Z,95777.17
2019-05-18T21:26:05.330Z,95768.47
2019-05-18T21:28:36.853Z,95771.77
2019-05-18T21:31:08.376Z,95773.36
2019-05-18T21:33:39.852Z,95768.31
2019-05-18T21:36:11.352Z,95770.20
2019-05-18T21:38:42.858Z,95769.82
2019-05-18T21:41:14.338Z,95766.22
2019-05-18T21:43:46.097Z,95769.38
2019-05-18T21:46:17.787Z,95764.77
2019-05-18T21:48:49.269Z,95765.63
2019-05-18T21:51:20.789Z,95758.56
2019-05-18T21:53:52.634Z,95758.31
2019-05-18T21:56:24.515Z,95766.84
2019-05-18T21:59:10.569Z,95761.36
2019-05-18T22:01:29.782Z,95758.98
2019-05-18T22:04:01.606Z,95758.86
2019-05-18T22:06:33.353Z,95754.47
2019-05-18T22:09:06.381Z,95753.97
2019-05-18T22:11:38.033Z,95749.06
2019-05-18T22:14:09.527Z,95749.42
2019-05-18T22:16:40.959Z,95747.02
2019-05-18T22:19:12.899Z,95754.47
2019-05-18T22:21:44.285Z,95746.97
2019-05-18T22:24:15.805Z,95744.44
2019-05-18T22:26:47.227Z,95740.55
2019-05-18T22:29:19.061Z,95742.88
2019-05-18T22:31:50.602Z,95738.38
2019-05-18T22:34:21.987Z,95731.20
2019-05-18T22:36:53.496Z,95723.77
2019-05-18T22:39:26.647Z,95716.77
2019-05-18T22:41:58.355Z,95709.00
2019-05-18T22:44:30.192Z,95706.05
2019-05-18T22:47:01.555Z,95712.76
2019-05-18T22:49:32.979Z,95713.22
2019-05-18T22:52:04.660Z,95706.91
2019-05-18T22:54:36.443Z,95712.48
2019-05-18T22:57:08.278Z,95710.67
2019-05-18T22:59:39.768Z,95708.95
2019-05-18T23:02:11.681Z,95702.52
2019-05-18T23:04:43.184Z,95712.20
2019-05-18T23:07:14.675Z,95709.89
2019-05-18T23:09:46.063Z,95706.83
2019-05-18T23:12:17.493Z,95704.13
2019-05-18T23:14:48.905Z,95712.59
2019-05-18T23:17:20.326Z,95704.76
2019-05-18T23:19:52.933Z,95708.70
2019-05-18T23:22:24.284Z,95708.05
2019-05-18T23:24:55.754Z,95709.06
2019-05-18T23:27:27.244Z,95702.71
2019-05-18T23:29:58.776Z,95702.84
2019-05-18T23:32:30.287Z,95691.62
2019-05-18T23:35:01.765Z,95703.03
2019-05-18T23:37:33.275Z,95696.52
2019-05-18T23:40:05.229Z,95699.20
2019-05-18T23:42:36.707Z,95691.92
2019-05-18T23:45:10.323Z,95701.81
2019-05-18T23:47:41.828Z,95694.92
2019-05-18T23:50:13.673Z,95693.94
2019-05-18T23:52:45.152Z,95695.84
2019-05-18T23:55:16.752Z,95693.50
2019-05-18T23:57:48.249Z,95690.27
